sensor_id;sensor_type;location;lat;lon;timestamp;pressure;altitude;pressure_sealevel;temperature;humidity
77351;BME280;66420;50.246;14.320;2023-08-30T00:00:06;98758.25;;;13.86;98.02
77351;BME280;66420;50.246;14.320;2023-08-30T00:02:52;98772.03;;;13.86;97.58
77351;BME280;66420;50.246;14.320;2023-08-30T00:05:39;98782.78;;;13.91;97.62
77351;BME280;66420;50.246;14.320;2023-08-30T00:08:24;98789.41;;;13.90;98.02
77351;BME280;66420;50.246;14.320;2023-08-30T00:11:08;98789.88;;;13.92;97.15
77351;BME280;66420;50.246;14.320;2023-08-30T00:14:01;98792.38;;;13.97;97.20
77351;BME280;66420;50.246;14.320;2023-08-30T00:16:46;98799.38;;;13.95;96.59
77351;BME280;66420;50.246;14.320;2023-08-30T00:19:32;98804.16;;;13.98;97.32
77351;BME280;66420;50.246;14.320;2023-08-30T00:22:16;98800.97;;;13.96;97.23
77351;BME280;66420;50.246;14.320;2023-08-30T00:25:01;98795.81;;;13.94;96.85
77351;BME280;66420;50.246;14.320;2023-08-30T00:27:46;98780.47;;;13.93;96.99
77351;BME280;66420;50.246;14.320;2023-08-30T00:30:31;98782.44;;;13.93;97.54
77351;BME280;66420;50.246;14.320;2023-08-30T00:33:15;98777.47;;;13.98;97.57
77351;BME280;66420;50.246;14.320;2023-08-30T00:36:00;98774.28;;;13.96;97.14
77351;BME280;66420;50.246;14.320;2023-08-30T00:38:46;98771.06;;;13.94;97.01
77351;BME280;66420;50.246;14.320;2023-08-30T00:41:31;98789.97;;;13.96;98.09
77351;BME280;66420;50.246;14.320;2023-08-30T00:44:16;98777.28;;;13.91;97.70
77351;BME280;66420;50.246;14.320;2023-08-30T00:47:02;98785.88;;;13.90;97.18
77351;BME280;66420;50.246;14.320;2023-08-30T00:49:47;98789.75;;;13.89;98.45
77351;BME280;66420;50.246;14.320;2023-08-30T00:52:32;98796.06;;;13.89;97.80
77351;BME280;66420;50.246;14.320;2023-08-30T00:55:16;98783.81;;;13.87;97.95
77351;BME280;66420;50.246;14.320;2023-08-30T00:58:01;98781.06;;;13.87;98.00
77351;BME280;66420;50.246;14.320;2023-08-30T01:00:47;98773.16;;;13.85;98.46
77351;BME280;66420;50.246;14.320;2023-08-30T01:03:32;98784.16;;;13.85;97.68
77351;BME280;66420;50.246;14.320;2023-08-30T01:06:16;98788.97;;;13.88;98.17
77351;BME280;66420;50.246;14.320;2023-08-30T01:09:02;98779.13;;;13.87;98.49
77351;BME280;66420;50.246;14.320;2023-08-30T01:15:20;98771.69;;;13.88;98.55
77351;BME280;66420;50.246;14.320;2023-08-30T01:18:06;98768.22;;;13.91;98.52
77351;BME280;66420;50.246;14.320;2023-08-30T01:20:53;98758.72;;;13.88;98.99
77351;BME280;66420;50.246;14.320;2023-08-30T01:23:56;98751.25;;;13.89;98.49
77351;BME280;66420;50.246;14.320;2023-08-30T01:27:10;98752.06;;;13.89;98.84
77351;BME280;66420;50.246;14.320;2023-08-30T01:29:56;98759.16;;;13.90;97.83
77351;BME280;66420;50.246;14.320;2023-08-30T01:32:42;98755.25;;;13.91;98.39
77351;BME280;66420;50.246;14.320;2023-08-30T01:35:28;98774.06;;;13.89;99.11
77351;BME280;66420;50.246;14.320;2023-08-30T01:38:17;98767.66;;;13.85;98.85
77351;BME280;66420;50.246;14.320;2023-08-30T01:41:04;98763.84;;;13.90;98.25
77351;BME280;66420;50.246;14.320;2023-08-30T01:43:49;98760.78;;;13.91;97.04
77351;BME280;66420;50.246;14.320;2023-08-30T01:46:37;98767.06;;;13.92;98.51
77351;BME280;66420;50.246;14.320;2023-08-30T01:49:22;98771.06;;;13.94;97.46
77351;BME280;66420;50.246;14.320;2023-08-30T01:52:09;98751.38;;;13.92;97.78
77351;BME280;66420;50.246;14.320;2023-08-30T01:54:54;98748.25;;;13.94;97.75
77351;BME280;66420;50.246;14.320;2023-08-30T01:57:39;98753.66;;;13.90;96.61
77351;BME280;66420;50.246;14.320;2023-08-30T02:00:24;98764.66;;;13.90;97.22
77351;BME280;66420;50.246;14.320;2023-08-30T02:03:12;98751.38;;;13.92;97.58
77351;BME280;66420;50.246;14.320;2023-08-30T02:06:04;98752.19;;;13.93;98.48
77351;BME280;66420;50.246;14.320;2023-08-30T02:08:55;98759.16;;;13.90;97.67
77351;BME280;66420;50.246;14.320;2023-08-30T02:11:44;98763.19;;;13.93;97.02
77351;BME280;66420;50.246;14.320;2023-08-30T02:14:32;98758.03;;;13.91;96.60
77351;BME280;66420;50.246;14.320;2023-08-30T02:17:17;98766.28;;;13.91;96.62
77351;BME280;66420;50.246;14.320;2023-08-30T02:20:02;98758.44;;;13.93;97.35
77351;BME280;66420;50.246;14.320;2023-08-30T02:22:47;98755.69;;;13.93;97.49
77351;BME280;66420;50.246;14.320;2023-08-30T02:25:32;98768.47;;;13.86;97.41
77351;BME280;66420;50.246;14.320;2023-08-30T02:28:17;98771.69;;;13.88;98.81
77351;BME280;66420;50.246;14.320;2023-08-30T02:31:02;98770.50;;;13.89;97.92
77351;BME280;66420;50.246;14.320;2023-08-30T02:33:47;98759.06;;;13.87;97.84
77351;BME280;66420;50.246;14.320;2023-08-30T02:36:32;98773.16;;;13.85;98.02
77351;BME280;66420;50.246;14.320;2023-08-30T02:39:16;98766.84;;;13.85;97.74
77351;BME280;66420;50.246;14.320;2023-08-30T02:42:01;98753.47;;;13.83;98.08
77351;BME280;66420;50.246;14.320;2023-08-30T02:44:47;98753.91;;;13.85;98.53
77351;BME280;66420;50.246;14.320;2023-08-30T02:47:31;98750.72;;;13.83;98.50
77351;BME280;66420;50.246;14.320;2023-08-30T02:50:16;98743.72;;;13.86;98.81
77351;BME280;66420;50.246;14.320;2023-08-30T02:53:01;98748.88;;;13.87;98.92
77351;BME280;66420;50.246;14.320;2023-08-30T02:55:46;98739.47;;;13.88;97.99
77351;BME280;66420;50.246;14.320;2023-08-30T02:58:32;98739.47;;;13.88;97.16
77351;BME280;66420;50.246;14.320;2023-08-30T03:01:17;98752.06;;;13.89;97.51
77351;BME280;66420;50.246;14.320;2023-08-30T03:04:04;98752.94;;;13.93;98.52
77351;BME280;66420;50.246;14.320;2023-08-30T03:06:48;98749.75;;;13.91;98.04
77351;BME280;66420;50.246;14.320;2023-08-30T03:09:33;98751.47;;;13.96;97.63
77351;BME280;66420;50.246;14.320;2023-08-30T03:12:18;98754.56;;;13.94;96.72
77351;BME280;66420;50.246;14.320;2023-08-30T03:15:03;98748.16;;;13.90;96.13
77351;BME280;66420;50.246;14.320;2023-08-30T03:17:49;98752.53;;;13.91;96.41
77351;BME280;66420;50.246;14.320;2023-08-30T03:20:34;98747.34;;;13.90;96.07
77351;BME280;66420;50.246;14.320;2023-08-30T03:23:18;98754.13;;;13.92;96.99
77351;BME280;66420;50.246;14.320;2023-08-30T03:26:11;98759.25;;;13.94;97.68
77351;BME280;66420;50.246;14.320;2023-08-30T03:28:56;98761.19;;;13.93;96.94
77351;BME280;66420;50.246;14.320;2023-08-30T03:31:40;98764.75;;;13.94;96.68
77351;BME280;66420;50.246;14.320;2023-08-30T03:34:25;98774.44;;;13.88;97.06
77351;BME280;66420;50.246;14.320;2023-08-30T03:37:10;98775.91;;;13.85;97.16
77351;BME280;66420;50.246;14.320;2023-08-30T03:39:54;98785.78;;;13.86;97.24
77351;BME280;66420;50.246;14.320;2023-08-30T03:42:39;98779.47;;;13.86;97.53
77351;BME280;66420;50.246;14.320;2023-08-30T03:45:23;98776.28;;;13.84;99.21
77351;BME280;66420;50.246;14.320;2023-08-30T03:48:09;98789.31;;;13.87;98.60
77351;BME280;66420;50.246;14.320;2023-08-30T03:50:54;98785.44;;;13.88;98.75
77351;BME280;66420;50.246;14.320;2023-08-30T03:53:39;98789.31;;;13.87;99.28
77351;BME280;66420;50.246;14.320;2023-08-30T03:56:24;98778.31;;;13.87;99.28
77351;BME280;66420;50.246;14.320;2023-08-30T03:59:10;98785.31;;;13.84;99.68
77351;BME280;66420;50.246;14.320;2023-08-30T04:01:54;98770.06;;;13.87;99.74
77351;BME280;66420;50.246;14.320;2023-08-30T04:04:39;98776.81;;;13.89;99.30
77351;BME280;66420;50.246;14.320;2023-08-30T04:07:24;98775.47;;;13.83;99.63
77351;BME280;66420;50.246;14.320;2023-08-30T04:10:08;98779.47;;;13.86;99.62
77351;BME280;66420;50.246;14.320;2023-08-30T04:12:53;98779.13;;;13.87;98.27
77351;BME280;66420;50.246;14.320;2023-08-30T04:15:38;98783.72;;;13.83;98.80
77351;BME280;66420;50.246;14.320;2023-08-30T04:18:23;98783.47;;;13.88;99.16
77351;BME280;66420;50.246;14.320;2023-08-30T04:21:08;98792.88;;;13.87;98.47
77351;BME280;66420;50.246;14.320;2023-08-30T04:23:53;98781.41;;;13.85;98.84
77351;BME280;66420;50.246;14.320;2023-08-30T04:26:37;98784.16;;;13.85;98.53
77351;BME280;66420;50.246;14.320;2023-08-30T04:29:22;98785.78;;;13.86;98.64
77351;BME280;66420;50.246;14.320;2023-08-30T04:32:07;98777.97;;;13.88;97.29
77351;BME280;66420;50.246;14.320;2023-08-30T04:34:52;98784.97;;;13.86;97.60
77351;BME280;66420;50.246;14.320;2023-08-30T04:37:36;98787.28;;;13.84;97.24
77351;BME280;66420;50.246;14.320;2023-08-30T04:40:24;98788.06;;;13.84;97.27
77351;BME280;66420;50.246;14.320;2023-08-30T04:43:10;98791.28;;;13.86;96.85
77351;BME280;66420;50.246;14.320;2023-08-30T04:45:55;98788.84;;;13.85;96.17
77351;BME280;66420;50.246;14.320;2023-08-30T04:48:39;98789.66;;;13.85;96.08
77351;BME280;66420;50.246;14.320;2023-08-30T04:51:24;98785.78;;;13.86;96.42
77351;BME280;66420;50.246;14.320;2023-08-30T04:54:09;98789.66;;;13.85;96.24
77351;BME280;66420;50.246;14.320;2023-08-30T04:56:54;98791.16;;;13.83;96.41
77351;BME280;66420;50.246;14.320;2023-08-30T04:59:38;98797.25;;;13.76;96.36
77351;BME280;66420;50.246;14.320;2023-08-30T05:02:24;98791.41;;;13.77;96.90
77351;BME280;66420;50.246;14.320;2023-08-30T05:05:09;98795.41;;;13.80;96.07
77351;BME280;66420;50.246;14.320;2023-08-30T05:07:54;98796.56;;;13.79;95.61
77351;BME280;66420;50.246;14.320;2023-08-30T05:10:39;98800.91;;;13.80;96.21
77351;BME280;66420;50.246;14.320;2023-08-30T05:13:24;98804.38;;;13.77;95.90
77351;BME280;66420;50.246;14.320;2023-08-30T05:16:09;98799.31;;;13.79;96.32
77351;BME280;66420;50.246;14.320;2023-08-30T05:18:54;98800.56;;;13.82;96.88
77351;BME280;66420;50.246;14.320;2023-08-30T05:21:38;98798.06;;;13.76;96.01
77351;BME280;66420;50.246;14.320;2023-08-30T05:24:23;98797.72;;;13.78;97.19
77351;BME280;66420;50.246;14.320;2023-08-30T05:27:08;98787.75;;;13.73;97.73
77351;BME280;66420;50.246;14.320;2023-08-30T05:29:53;98794.88;;;13.74;97.16
77351;BME280;66420;50.246;14.320;2023-08-30T05:32:37;98797.16;;;13.72;97.44
77351;BME280;66420;50.246;14.320;2023-08-30T05:35:22;98800.38;;;13.74;97.63
77351;BME280;66420;50.246;14.320;2023-08-30T05:38:07;98802.41;;;13.77;96.76
77351;BME280;66420;50.246;14.320;2023-08-30T05:40:51;98804.38;;;13.77;97.26
77351;BME280;66420;50.246;14.320;2023-08-30T05:43:36;98796.56;;;13.79;96.47
77351;BME280;66420;50.246;14.320;2023-08-30T05:46:21;98795.53;;;13.84;96.32
77351;BME280;66420;50.246;14.320;2023-08-30T05:49:07;98803.41;;;13.85;96.02
77351;BME280;66420;50.246;14.320;2023-08-30T05:51:52;98797.66;;;13.90;95.81
77351;BME280;66420;50.246;14.320;2023-08-30T05:54:36;98799.28;;;13.91;95.87
77351;BME280;66420;50.246;14.320;2023-08-30T05:57:21;98802.03;;;13.91;96.28
77351;BME280;66420;50.246;14.320;2023-08-30T06:00:08;98801.56;;;13.89;94.63
77351;BME280;66420;50.246;14.320;2023-08-30T06:02:53;98807.06;;;13.89;95.69
77351;BME280;66420;50.246;14.320;2023-08-30T06:05:38;98809.47;;;13.91;95.03
77351;BME280;66420;50.246;14.320;2023-08-30T06:08:23;98811.19;;;13.95;94.86
77351;BME280;66420;50.246;14.320;2023-08-30T06:11:07;98818.97;;;13.93;95.10
77351;BME280;66420;50.246;14.320;2023-08-30T06:13:52;98817.72;;;13.91;94.57
77351;BME280;66420;50.246;14.320;2023-08-30T06:16:37;98807.97;;;13.93;95.20
77351;BME280;66420;50.246;14.320;2023-08-30T06:19:23;98816.44;;;14.00;95.25
77351;BME280;66420;50.246;14.320;2023-08-30T06:22:08;98819.44;;;13.95;94.05
77351;BME280;66420;50.246;14.320;2023-08-30T06:24:52;98810.94;;;14.00;95.06
77351;BME280;66420;50.246;14.320;2023-08-30T06:27:55;98809.66;;;13.98;95.23
77351;BME280;66420;50.246;14.320;2023-08-30T06:30:40;98813.59;;;13.97;96.05
77351;BME280;66420;50.246;14.320;2023-08-30T06:33:25;98817.16;;;13.97;95.64
77351;BME280;66420;50.246;14.320;2023-08-30T06:36:10;98813.47;;;13.93;95.82
77351;BME280;66420;50.246;14.320;2023-08-30T06:38:56;98823.69;;;13.93;96.46
77351;BME280;66420;50.246;14.320;2023-08-30T06:41:41;98819.69;;;13.90;96.16
77351;BME280;66420;50.246;14.320;2023-08-30T06:44:25;98822.00;;;13.88;95.55
77351;BME280;66420;50.246;14.320;2023-08-30T06:47:10;98823.56;;;13.89;95.33
77351;BME280;66420;50.246;14.320;2023-08-30T06:49:55;98818.28;;;13.96;95.86
77351;BME280;66420;50.246;14.320;2023-08-30T06:52:40;98823.00;;;13.96;95.12
77351;BME280;66420;50.246;14.320;2023-08-30T06:55:25;98825.28;;;13.94;95.72
77351;BME280;66420;50.246;14.320;2023-08-30T06:58:10;98820.94;;;13.93;95.43
77351;BME280;66420;50.246;14.320;2023-08-30T07:00:57;98829.31;;;13.96;96.11
77351;BME280;66420;50.246;14.320;2023-08-30T07:03:42;98825.50;;;14.01;95.81
77351;BME280;66420;50.246;14.320;2023-08-30T07:06:29;98827.34;;;13.97;95.20
77351;BME280;66420;50.246;14.320;2023-08-30T07:09:15;98824.78;;;14.04;95.75
77351;BME280;66420;50.246;14.320;2023-08-30T07:12:01;98828.81;;;14.06;95.58
77351;BME280;66420;50.246;14.320;2023-08-30T07:14:46;98828.09;;;14.09;96.53
77351;BME280;66420;50.246;14.320;2023-08-30T07:17:30;98824.22;;;14.10;95.94
77351;BME280;66420;50.246;14.320;2023-08-30T07:20:15;98824.22;;;14.10;95.96
77351;BME280;66420;50.246;14.320;2023-08-30T07:23:00;98814.81;;;14.11;95.73
77351;BME280;66420;50.246;14.320;2023-08-30T07:25:45;98814.91;;;14.15;96.27
77351;BME280;66420;50.246;14.320;2023-08-30T07:28:30;98824.41;;;14.17;95.73
77351;BME280;66420;50.246;14.320;2023-08-30T07:31:15;98832.75;;;14.21;95.93
77351;BME280;66420;50.246;14.320;2023-08-30T07:34:03;98821.88;;;14.25;95.72
77351;BME280;66420;50.246;14.320;2023-08-30T07:36:47;98821.16;;;14.28;94.53
77351;BME280;66420;50.246;14.320;2023-08-30T07:39:32;98816.09;;;14.30;93.98
77351;BME280;66420;50.246;14.320;2023-08-30T07:42:16;98819.06;;;14.37;94.02
77351;BME280;66420;50.246;14.320;2023-08-30T07:45:01;98816.06;;;14.42;92.59
77351;BME280;66420;50.246;14.320;2023-08-30T07:47:45;98823.81;;;14.52;93.10
77351;BME280;66420;50.246;14.320;2023-08-30T07:50:30;98826.50;;;14.64;92.10
77351;BME280;66420;50.246;14.320;2023-08-30T07:53:15;98829.19;;;14.76;91.82
77351;BME280;66420;50.246;14.320;2023-08-30T07:55:59;98829.38;;;14.83;90.06
77351;BME280;66420;50.246;14.320;2023-08-30T07:58:44;98827.97;;;14.89;90.41
77351;BME280;66420;50.246;14.320;2023-08-30T08:01:29;98823.34;;;14.93;90.40
77351;BME280;66420;50.246;14.320;2023-08-30T08:04:14;98820.50;;;15.05;91.53
77351;BME280;66420;50.246;14.320;2023-08-30T08:06:59;98823.31;;;15.09;89.18
77351;BME280;66420;50.246;14.320;2023-08-30T08:09:45;98826.28;;;15.16;88.09
77351;BME280;66420;50.246;14.320;2023-08-30T08:12:30;98828.13;;;15.28;90.01
77351;BME280;66420;50.246;14.320;2023-08-30T08:15:15;98812.63;;;15.39;90.21
77351;BME280;66420;50.246;14.320;2023-08-30T08:18:01;98822.13;;;15.41;88.17
77351;BME280;66420;50.246;14.320;2023-08-30T08:20:46;98819.13;;;15.46;89.31
77351;BME280;66420;50.246;14.320;2023-08-30T08:23:31;98828.59;;;15.49;87.54
77351;BME280;66420;50.246;14.320;2023-08-30T08:26:15;98823.75;;;15.58;88.14
77351;BME280;66420;50.246;14.320;2023-08-30T08:29:00;98823.44;;;15.63;86.94
77351;BME280;66420;50.246;14.320;2023-08-30T08:31:45;98819.72;;;15.71;87.42
77351;BME280;66420;50.246;14.320;2023-08-30T08:34:30;98819.44;;;15.76;86.75
77351;BME280;66420;50.246;14.320;2023-08-30T08:37:14;98829.59;;;15.91;86.42
77351;BME280;66420;50.246;14.320;2023-08-30T08:39:59;98829.78;;;15.99;85.71
77351;BME280;66420;50.246;14.320;2023-08-30T08:42:45;98831.50;;;16.07;85.96
77351;BME280;66420;50.246;14.320;2023-08-30T08:45:35;98830.72;;;16.06;85.88
77351;BME280;66420;50.246;14.320;2023-08-30T08:48:20;98831.94;;;16.09;85.39
77351;BME280;66420;50.246;14.320;2023-08-30T08:51:06;98833.13;;;16.08;86.49
77351;BME280;66420;50.246;14.320;2023-08-30T08:53:51;98839.22;;;15.98;82.40
77351;BME280;66420;50.246;14.320;2023-08-30T08:56:36;98837.78;;;16.04;84.41
77351;BME280;66420;50.246;14.320;2023-08-30T08:59:22;98843.56;;;15.99;84.69
77351;BME280;66420;50.246;14.320;2023-08-30T09:02:10;98851.13;;;16.02;83.60
77351;BME280;66420;50.246;14.320;2023-08-30T09:04:57;98847.41;;;16.13;83.71
77351;BME280;66420;50.246;14.320;2023-08-30T09:07:42;98852.16;;;16.13;82.88
77351;BME280;66420;50.246;14.320;2023-08-30T09:10:28;98849.75;;;16.11;81.48
77351;BME280;66420;50.246;14.320;2023-08-30T09:13:13;98849.09;;;16.18;82.52
77351;BME280;66420;50.246;14.320;2023-08-30T09:15:57;98845.63;;;16.21;82.62
77351;BME280;66420;50.246;14.320;2023-08-30T09:18:43;98847.00;;;16.11;80.58
77351;BME280;66420;50.246;14.320;2023-08-30T09:21:28;98844.75;;;16.17;82.14
77351;BME280;66420;50.246;14.320;2023-08-30T09:24:14;98851.19;;;16.24;80.37
77351;BME280;66420;50.246;14.320;2023-08-30T09:26:59;98848.50;;;16.28;81.73
77351;BME280;66420;50.246;14.320;2023-08-30T09:29:43;98843.72;;;16.44;79.72
77351;BME280;66420;50.246;14.320;2023-08-30T09:32:28;98843.56;;;16.56;80.65
77351;BME280;66420;50.246;14.320;2023-08-30T09:35:13;98844.66;;;16.52;78.11
77351;BME280;66420;50.246;14.320;2023-08-30T09:37:58;98853.00;;;16.55;78.88
77351;BME280;66420;50.246;14.320;2023-08-30T09:40:43;98852.19;;;16.55;78.24
77351;BME280;66420;50.246;14.320;2023-08-30T09:43:28;98853.75;;;16.52;78.35
77351;BME280;66420;50.246;14.320;2023-08-30T09:46:12;98850.19;;;16.71;80.25
77351;BME280;66420;50.246;14.320;2023-08-30T09:48:57;98852.81;;;16.87;78.91
77351;BME280;66420;50.246;14.320;2023-08-30T09:51:42;98849.94;;;16.79;76.77
77351;BME280;66420;50.246;14.320;2023-08-30T09:54:27;98843.63;;;16.79;75.25
77351;BME280;66420;50.246;14.320;2023-08-30T09:57:13;98844.78;;;16.78;75.61
77351;BME280;66420;50.246;14.320;2023-08-30T09:59:59;98846.41;;;17.02;76.86
77351;BME280;66420;50.246;14.320;2023-08-30T10:02:44;98852.28;;;17.00;76.27
77351;BME280;66420;50.246;14.320;2023-08-30T10:05:29;98852.16;;;17.16;78.11
77351;BME280;66420;50.246;14.320;2023-08-30T10:08:16;98854.31;;;17.26;77.10
77351;BME280;66420;50.246;14.320;2023-08-30T10:11:02;98855.28;;;17.14;75.82
77351;BME280;66420;50.246;14.320;2023-08-30T10:13:47;98849.41;;;17.16;76.18
77351;BME280;66420;50.246;14.320;2023-08-30T10:24:21;98842.81;;;17.01;77.63
77351;BME280;66420;50.246;14.320;2023-08-30T10:27:08;98840.91;;;16.82;76.60
77351;BME280;66420;50.246;14.320;2023-08-30T10:29:53;98840.44;;;17.00;78.32
77351;BME280;66420;50.246;14.320;2023-08-30T10:32:42;98835.38;;;16.82;76.70
77351;BME280;66420;50.246;14.320;2023-08-30T10:35:27;98838.44;;;16.77;76.10
77351;BME280;66420;50.246;14.320;2023-08-30T10:38:12;98833.06;;;16.84;78.51
77351;BME280;66420;50.246;14.320;2023-08-30T10:41:06;98841.06;;;16.90;76.70
77351;BME280;66420;50.246;14.320;2023-08-30T10:43:52;98838.41;;;16.97;77.04
77351;BME280;66420;50.246;14.320;2023-08-30T10:46:37;98841.41;;;17.11;75.88
77351;BME280;66420;50.246;14.320;2023-08-30T10:49:22;98840.06;;;17.24;76.28
77351;BME280;66420;50.246;14.320;2023-08-30T10:52:11;98846.88;;;17.30;74.75
77351;BME280;66420;50.246;14.320;2023-08-30T10:58:02;98839.13;;;17.39;76.37
77351;BME280;66420;50.246;14.320;2023-08-30T11:00:47;98844.34;;;17.44;77.41
77351;BME280;66420;50.246;14.320;2023-08-30T11:03:31;98834.81;;;17.42;75.29
77351;BME280;66420;50.246;14.320;2023-08-30T11:06:17;98841.97;;;17.20;75.21
77351;BME280;66420;50.246;14.320;2023-08-30T11:09:02;98839.50;;;17.15;76.24
77351;BME280;66420;50.246;14.320;2023-08-30T11:11:49;98833.81;;;17.04;75.08
77351;BME280;66420;50.246;14.320;2023-08-30T11:14:34;98837.50;;;17.12;78.14
77351;BME280;66420;50.246;14.320;2023-08-30T11:17:19;98830.25;;;17.04;75.49
77351;BME280;66420;50.246;14.320;2023-08-30T11:22:57;98832.53;;;17.47;76.98
77351;BME280;66420;50.246;14.320;2023-08-30T11:25:42;98828.84;;;17.40;76.54
77351;BME280;66420;50.246;14.320;2023-08-30T11:28:26;98825.78;;;17.45;75.20
77351;BME280;66420;50.246;14.320;2023-08-30T11:31:21;98819.97;;;17.53;75.59
77351;BME280;66420;50.246;14.320;2023-08-30T11:34:07;98824.34;;;17.81;74.36
77351;BME280;66420;50.246;14.320;2023-08-30T11:36:52;98815.09;;;17.96;74.28
77351;BME280;66420;50.246;14.320;2023-08-30T11:39:37;98820.00;;;18.09;72.20
77351;BME280;66420;50.246;14.320;2023-08-30T11:42:22;98812.75;;;18.31;74.03
77351;BME280;66420;50.246;14.320;2023-08-30T11:45:07;98818.84;;;18.47;72.97
77351;BME280;66420;50.246;14.320;2023-08-30T11:47:52;98815.91;;;18.63;72.75
77351;BME280;66420;50.246;14.320;2023-08-30T11:50:38;98812.56;;;18.50;71.10
77351;BME280;66420;50.246;14.320;2023-08-30T11:53:23;98811.75;;;18.83;73.38
77351;BME280;66420;50.246;14.320;2023-08-30T11:56:08;98801.50;;;18.87;71.20
77351;BME280;66420;50.246;14.320;2023-08-30T11:58:53;98803.25;;;19.06;70.33
77351;BME280;66420;50.246;14.320;2023-08-30T12:01:38;98803.66;;;19.08;70.82
77351;BME280;66420;50.246;14.320;2023-08-30T12:04:23;98799.81;;;19.20;70.85
77351;BME280;66420;50.246;14.320;2023-08-30T12:07:08;98800.09;;;19.11;70.09
77351;BME280;66420;50.246;14.320;2023-08-30T12:10:04;98794.72;;;18.85;67.71
77351;BME280;66420;50.246;14.320;2023-08-30T12:12:49;98796.84;;;19.02;70.74
77351;BME280;66420;50.246;14.320;2023-08-30T12:15:34;98792.06;;;19.43;70.13
77351;BME280;66420;50.246;14.320;2023-08-30T12:18:22;98789.97;;;19.29;68.13
77351;BME280;66420;50.246;14.320;2023-08-30T12:21:13;98796.72;;;19.35;67.62
77351;BME280;66420;50.246;14.320;2023-08-30T12:24:01;98784.22;;;19.56;67.48
77351;BME280;66420;50.246;14.320;2023-08-30T12:26:47;98789.00;;;19.59;65.22
77351;BME280;66420;50.246;14.320;2023-08-30T12:29:32;98780.66;;;19.59;66.13
77351;BME280;66420;50.246;14.320;2023-08-30T12:32:17;98779.19;;;19.21;66.74
77351;BME280;66420;50.246;14.320;2023-08-30T12:35:02;98779.53;;;19.16;66.38
77351;BME280;66420;50.246;14.320;2023-08-30T12:37:46;98776.38;;;19.68;66.91
77351;BME280;66420;50.246;14.320;2023-08-30T12:40:31;98768.09;;;19.79;63.59
77351;BME280;66420;50.246;14.320;2023-08-30T12:43:19;98770.72;;;19.54;63.45
77351;BME280;66420;50.246;14.320;2023-08-30T12:46:04;98772.44;;;19.73;63.39
77351;BME280;66420;50.246;14.320;2023-08-30T12:48:49;98769.56;;;19.62;65.06
77351;BME280;66420;50.246;14.320;2023-08-30T12:51:34;98762.25;;;19.98;63.76
77351;BME280;66420;50.246;14.320;2023-08-30T12:54:18;98763.44;;;20.04;62.58
77351;BME280;66420;50.246;14.320;2023-08-30T12:57:03;98767.38;;;19.96;61.57
77351;BME280;66420;50.246;14.320;2023-08-30T12:59:48;98756.66;;;19.95;65.18
77351;BME280;66420;50.246;14.320;2023-08-30T13:02:32;98762.59;;;19.89;65.68
77351;BME280;66420;50.246;14.320;2023-08-30T13:05:18;98759.78;;;19.79;64.13
77351;BME280;66420;50.246;14.320;2023-08-30T13:08:03;98770.00;;;19.64;63.83
77351;BME280;66420;50.246;14.320;2023-08-30T13:10:48;98762.56;;;19.86;64.68
77351;BME280;66420;50.246;14.320;2023-08-30T13:13:32;98757.44;;;19.88;63.95
77351;BME280;66420;50.246;14.320;2023-08-30T13:16:17;98759.72;;;19.72;61.88
77351;BME280;66420;50.246;14.320;2023-08-30T13:19:02;98755.31;;;19.60;60.84
77351;BME280;66420;50.246;14.320;2023-08-30T13:21:47;98754.59;;;19.74;61.41
77351;BME280;66420;50.246;14.320;2023-08-30T13:24:31;98747.25;;;20.27;60.10
77351;BME280;66420;50.246;14.320;2023-08-30T13:27:16;98740.19;;;20.55;62.33
77351;BME280;66420;50.246;14.320;2023-08-30T13:30:01;98750.19;;;20.98;59.44
77351;BME280;66420;50.246;14.320;2023-08-30T13:32:46;98744.59;;;20.66;59.29
77351;BME280;66420;50.246;14.320;2023-08-30T13:35:31;98752.47;;;20.40;61.76
77351;BME280;66420;50.246;14.320;2023-08-30T13:38:15;98747.94;;;19.96;62.37
77351;BME280;66420;50.246;14.320;2023-08-30T13:41:00;98747.47;;;19.80;61.48
77351;BME280;66420;50.246;14.320;2023-08-30T13:43:45;98751.72;;;19.56;62.97
77351;BME280;66420;50.246;14.320;2023-08-30T13:46:30;98745.41;;;19.63;61.31
77351;BME280;66420;50.246;14.320;2023-08-30T13:49:15;98753.69;;;19.52;60.61
77351;BME280;66420;50.246;14.320;2023-08-30T13:52:00;98746.13;;;19.53;60.67
77351;BME280;66420;50.246;14.320;2023-08-30T13:54:45;98752.09;;;19.55;63.77
77351;BME280;66420;50.246;14.320;2023-08-30T13:57:29;98744.44;;;19.37;62.00
77351;BME280;66420;50.246;14.320;2023-08-30T14:00:15;98745.13;;;19.24;61.99
77351;BME280;66420;50.246;14.320;2023-08-30T14:03:00;98747.00;;;19.09;61.82
77351;BME280;66420;50.246;14.320;2023-08-30T14:05:45;98740.19;;;18.99;61.74
77351;BME280;66420;50.246;14.320;2023-08-30T14:08:30;98742.63;;;19.08;63.45
77351;BME280;66420;50.246;14.320;2023-08-30T14:11:15;98746.66;;;19.14;63.03
77351;BME280;66420;50.246;14.320;2023-08-30T14:13:59;98737.91;;;19.16;63.41
77351;BME280;66420;50.246;14.320;2023-08-30T14:16:45;98732.44;;;19.19;62.53
77351;BME280;66420;50.246;14.320;2023-08-30T14:19:30;98732.81;;;19.21;62.20
77351;BME280;66420;50.246;14.320;2023-08-30T14:22:14;98735.13;;;19.12;61.26
77351;BME280;66420;50.246;14.320;2023-08-30T14:24:59;98741.84;;;19.08;63.08
77351;BME280;66420;50.246;14.320;2023-08-30T14:27:43;98741.19;;;19.25;63.67
77351;BME280;66420;50.246;14.320;2023-08-30T14:30:29;98749.09;;;19.26;62.76
77351;BME280;66420;50.246;14.320;2023-08-30T14:33:14;98742.75;;;19.22;62.16
77351;BME280;66420;50.246;14.320;2023-08-30T14:35:59;98743.06;;;19.10;62.81
77351;BME280;66420;50.246;14.320;2023-08-30T14:38:45;98743.44;;;19.12;63.22
77351;BME280;66420;50.246;14.320;2023-08-30T14:41:30;98750.59;;;19.13;63.90